sensor_id;sensor_type;location;lat;lon;timestamp;temperature;humidity
49503;DHT22;35409;48.776;9.204;2023-12-22T00:01:06;6.50;99.90
49503;DHT22;35409;48.776;9.204;2023-12-22T00:03:31;6.50;99.90
49503;DHT22;35409;48.776;9.204;2023-12-22T00:05:57;6.40;99.90
49503;DHT22;35409;48.776;9.204;2023-12-22T00:08:23;6.30;99.90
49503;DHT22;35409;48.776;9.204;2023-12-22T00:10:51;6.40;99.90
49503;DHT22;35409;48.776;9.204;2023-12-22T00:13:17;6.30;99.90
49503;DHT22;35409;48.776;9.204;2023-12-22T00:15:43;6.30;99.90
49503;DHT22;35409;48.776;9.204;2023-12-22T00:18:08;6.40;99.90
49503;DHT22;35409;48.776;9.204;2023-12-22T00:20:34;6.40;99.90
49503;DHT22;35409;48.776;9.204;2023-12-22T00:23:00;6.50;99.90
49503;DHT22;35409;48.776;9.204;2023-12-22T00:25:25;6.40;99.90
49503;DHT22;35409;48.776;9.204;2023-12-22T00:27:51;6.60;99.90
49503;DHT22;35409;48.776;9.204;2023-12-22T00:30:17;6.60;99.90
49503;DHT22;35409;48.776;9.204;2023-12-22T00:32:43;6.70;99.90
49503;DHT22;35409;48.776;9.204;2023-12-22T00:35:08;6.80;99.90
49503;DHT22;35409;48.776;9.204;2023-12-22T00:37:34;6.80;99.90
49503;DHT22;35409;48.776;9.204;2023-12-22T00:40:00;7.00;99.90
49503;DHT22;35409;48.776;9.204;2023-12-22T00:42:26;7.10;99.90
49503;DHT22;35409;48.776;9.204;2023-12-22T00:44:52;7.10;99.90
49503;DHT22;35409;48.776;9.204;2023-12-22T00:47:17;7.00;99.90
49503;DHT22;35409;48.776;9.204;2023-12-22T00:49:43;6.80;99.90
49503;DHT22;35409;48.776;9.204;2023-12-22T00:52:09;6.70;99.90
49503;DHT22;35409;48.776;9.204;2023-12-22T00:54:34;6.70;99.90
49503;DHT22;35409;48.776;9.204;2023-12-22T00:57:00;6.60;99.90
49503;DHT22;35409;48.776;9.204;2023-12-22T00:59:25;6.50;99.90
49503;DHT22;35409;48.776;9.204;2023-12-22T01:01:51;6.50;99.90
49503;DHT22;35409;48.776;9.204;2023-12-22T01:04:16;6.40;99.90
49503;DHT22;35409;48.776;9.204;2023-12-22T01:06:42;6.40;99.90
49503;DHT22;35409;48.776;9.204;2023-12-22T01:09:08;6.30;99.90
49503;DHT22;35409;48.776;9.204;2023-12-22T01:11:33;6.30;99.90
49503;DHT22;35409;48.776;9.204;2023-12-22T01:13:59;6.20;99.90
49503;DHT22;35409;48.776;9.204;2023-12-22T01:16:25;6.20;99.90
49503;DHT22;35409;48.776;9.204;2023-12-22T01:18:50;6.20;99.90
49503;DHT22;35409;48.776;9.204;2023-12-22T01:21:16;6.20;99.90
49503;DHT22;35409;48.776;9.204;2023-12-22T01:23:42;6.20;99.90
49503;DHT22;35409;48.776;9.204;2023-12-22T01:26:08;6.10;99.90
49503;DHT22;35409;48.776;9.204;2023-12-22T01:28:34;6.20;99.90
49503;DHT22;35409;48.776;9.204;2023-12-22T01:31:00;6.30;99.90
49503;DHT22;35409;48.776;9.204;2023-12-22T01:33:26;6.50;99.90
49503;DHT22;35409;48.776;9.204;2023-12-22T01:35:51;6.60;99.90
49503;DHT22;35409;48.776;9.204;2023-12-22T01:38:17;6.60;99.90
49503;DHT22;35409;48.776;9.204;2023-12-22T01:40:43;6.80;99.90
49503;DHT22;35409;48.776;9.204;2023-12-22T01:43:09;6.80;99.90
49503;DHT22;35409;48.776;9.204;2023-12-22T01:45:34;6.80;99.90
49503;DHT22;35409;48.776;9.204;2023-12-22T01:48:01;7.00;99.90
49503;DHT22;35409;48.776;9.204;2023-12-22T01:50:28;6.90;99.90
49503;DHT22;35409;48.776;9.204;2023-12-22T01:52:54;7.00;99.90
49503;DHT22;35409;48.776;9.204;2023-12-22T01:55:20;7.00;99.90
49503;DHT22;35409;48.776;9.204;2023-12-22T01:57:47;7.00;99.90
49503;DHT22;35409;48.776;9.204;2023-12-22T02:00:13;7.10;99.90
49503;DHT22;35409;48.776;9.204;2023-12-22T02:02:40;7.10;99.90
49503;DHT22;35409;48.776;9.204;2023-12-22T02:05:08;6.90;99.90
49503;DHT22;35409;48.776;9.204;2023-12-22T02:07:41;7.00;99.90
49503;DHT22;35409;48.776;9.204;2023-12-22T02:10:10;6.90;99.90
49503;DHT22;35409;48.776;9.204;2023-12-22T02:12:36;6.90;99.90
49503;DHT22;35409;48.776;9.204;2023-12-22T02:15:02;6.90;99.90
49503;DHT22;35409;48.776;9.204;2023-12-22T02:20:07;7.00;99.90
49503;DHT22;35409;48.776;9.204;2023-12-22T02:22:34;7.00;99.90
49503;DHT22;35409;48.776;9.204;2023-12-22T02:25:00;7.00;99.90
49503;DHT22;35409;48.776;9.204;2023-12-22T02:30:18;7.00;99.90
49503;DHT22;35409;48.776;9.204;2023-12-22T02:32:50;7.00;99.90
49503;DHT22;35409;48.776;9.204;2023-12-22T02:35:26;7.00;99.90
49503;DHT22;35409;48.776;9.204;2023-12-22T02:37:53;7.00;99.90
49503;DHT22;35409;48.776;9.204;2023-12-22T02:40:19;7.00;99.90
49503;DHT22;35409;48.776;9.204;2023-12-22T02:42:46;7.00;99.90
49503;DHT22;35409;48.776;9.204;2023-12-22T02:45:18;7.10;99.90
49503;DHT22;35409;48.776;9.204;2023-12-22T02:47:44;7.10;99.90
49503;DHT22;35409;48.776;9.204;2023-12-22T02:50:10;7.10;99.90
49503;DHT22;35409;48.776;9.204;2023-12-22T02:52:36;7.10;99.90
49503;DHT22;35409;48.776;9.204;2023-12-22T02:55:03;7.10;99.90
49503;DHT22;35409;48.776;9.204;2023-12-22T02:57:28;7.20;99.90
49503;DHT22;35409;48.776;9.204;2023-12-22T02:59:54;7.30;99.90
49503;DHT22;35409;48.776;9.204;2023-12-22T03:02:19;7.30;99.90
49503;DHT22;35409;48.776;9.204;2023-12-22T03:04:45;7.30;99.90
49503;DHT22;35409;48.776;9.204;2023-12-22T03:07:14;7.40;99.90
49503;DHT22;35409;48.776;9.204;2023-12-22T03:09:40;7.30;99.90
49503;DHT22;35409;48.776;9.204;2023-12-22T03:12:07;7.40;99.90
49503;DHT22;35409;48.776;9.204;2023-12-22T03:14:33;7.50;99.90
49503;DHT22;35409;48.776;9.204;2023-12-22T03:17:00;7.50;99.90
49503;DHT22;35409;48.776;9.204;2023-12-22T03:19:26;7.50;99.90
49503;DHT22;35409;48.776;9.204;2023-12-22T03:21:51;7.50;99.90
49503;DHT22;35409;48.776;9.204;2023-12-22T03:24:17;7.50;99.90
49503;DHT22;35409;48.776;9.204;2023-12-22T03:26:45;7.60;99.90
49503;DHT22;35409;48.776;9.204;2023-12-22T03:29:10;7.60;99.90
49503;DHT22;35409;48.776;9.204;2023-12-22T03:31:36;7.60;99.90
49503;DHT22;35409;48.776;9.204;2023-12-22T03:34:02;7.80;99.90
49503;DHT22;35409;48.776;9.204;2023-12-22T03:36:27;7.80;99.90
49503;DHT22;35409;48.776;9.204;2023-12-22T03:38:53;7.80;99.90
49503;DHT22;35409;48.776;9.204;2023-12-22T03:41:18;7.80;99.90
49503;DHT22;35409;48.776;9.204;2023-12-22T03:43:44;7.80;99.90
49503;DHT22;35409;48.776;9.204;2023-12-22T03:46:09;7.80;99.90
49503;DHT22;35409;48.776;9.204;2023-12-22T03:48:35;7.80;99.90
49503;DHT22;35409;48.776;9.204;2023-12-22T03:51:01;7.80;99.90
49503;DHT22;35409;48.776;9.204;2023-12-22T03:53:26;7.90;99.90
49503;DHT22;35409;48.776;9.204;2023-12-22T03:55:52;7.90;99.90
49503;DHT22;35409;48.776;9.204;2023-12-22T03:58:17;7.80;99.90
49503;DHT22;35409;48.776;9.204;2023-12-22T04:00:43;7.90;99.90
49503;DHT22;35409;48.776;9.204;2023-12-22T04:03:09;7.70;99.90
49503;DHT22;35409;48.776;9.204;2023-12-22T04:05:34;7.30;99.90
49503;DHT22;35409;48.776;9.204;2023-12-22T04:08:00;7.00;99.90
49503;DHT22;35409;48.776;9.204;2023-12-22T04:10:25;6.70;99.90
49503;DHT22;35409;48.776;9.204;2023-12-22T04:12:51;6.60;99.90
49503;DHT22;35409;48.776;9.204;2023-12-22T04:15:16;6.50;99.90
49503;DHT22;35409;48.776;9.204;2023-12-22T04:17:42;6.40;99.90
49503;DHT22;35409;48.776;9.204;2023-12-22T04:20:08;6.30;99.90
49503;DHT22;35409;48.776;9.204;2023-12-22T04:22:34;6.30;99.90
49503;DHT22;35409;48.776;9.204;2023-12-22T04:24:59;6.20;99.90
49503;DHT22;35409;48.776;9.204;2023-12-22T04:27:25;6.10;99.90
49503;DHT22;35409;48.776;9.204;2023-12-22T04:29:50;6.10;99.90
49503;DHT22;35409;48.776;9.204;2023-12-22T04:32:16;6.10;99.90
49503;DHT22;35409;48.776;9.204;2023-12-22T04:34:41;6.10;99.90
49503;DHT22;35409;48.776;9.204;2023-12-22T04:37:07;6.10;99.90
49503;DHT22;35409;48.776;9.204;2023-12-22T04:39:32;6.20;99.90
49503;DHT22;35409;48.776;9.204;2023-12-22T04:41:58;6.30;99.90
49503;DHT22;35409;48.776;9.204;2023-12-22T04:44:24;6.40;99.90
49503;DHT22;35409;48.776;9.204;2023-12-22T04:46:49;6.60;99.90
49503;DHT22;35409;48.776;9.204;2023-12-22T04:49:15;6.70;99.90
49503;DHT22;35409;48.776;9.204;2023-12-22T04:51:41;6.70;99.90
49503;DHT22;35409;48.776;9.204;2023-12-22T04:54:06;6.70;99.90
49503;DHT22;35409;48.776;9.204;2023-12-22T04:56:32;6.80;99.90
49503;DHT22;35409;48.776;9.204;2023-12-22T04:58:57;6.90;99.90
49503;DHT22;35409;48.776;9.204;2023-12-22T05:01:23;6.90;99.90
49503;DHT22;35409;48.776;9.204;2023-12-22T05:03:49;7.00;99.90
49503;DHT22;35409;48.776;9.204;2023-12-22T05:06:14;7.10;99.90
49503;DHT22;35409;48.776;9.204;2023-12-22T05:08:40;7.10;99.90
49503;DHT22;35409;48.776;9.204;2023-12-22T05:11:05;7.10;99.90
49503;DHT22;35409;48.776;9.204;2023-12-22T05:13:31;7.10;99.90
49503;DHT22;35409;48.776;9.204;2023-12-22T05:15:57;7.20;99.90
49503;DHT22;35409;48.776;9.204;2023-12-22T05:18:23;7.30;99.90
49503;DHT22;35409;48.776;9.204;2023-12-22T05:20:49;7.30;99.90
49503;DHT22;35409;48.776;9.204;2023-12-22T05:23:15;7.30;99.90
49503;DHT22;35409;48.776;9.204;2023-12-22T05:25:41;7.30;99.90
49503;DHT22;35409;48.776;9.204;2023-12-22T05:28:06;7.40;99.90
49503;DHT22;35409;48.776;9.204;2023-12-22T05:30:32;7.30;99.90
49503;DHT22;35409;48.776;9.204;2023-12-22T05:32:57;7.40;99.90
49503;DHT22;35409;48.776;9.204;2023-12-22T05:35:23;7.40;99.90
49503;DHT22;35409;48.776;9.204;2023-12-22T05:37:49;7.40;99.90
49503;DHT22;35409;48.776;9.204;2023-12-22T05:40:14;7.40;99.90
49503;DHT22;35409;48.776;9.204;2023-12-22T05:42:40;7.30;99.90
49503;DHT22;35409;48.776;9.204;2023-12-22T05:45:06;7.20;99.90
49503;DHT22;35409;48.776;9.204;2023-12-22T05:47:32;7.00;99.90
49503;DHT22;35409;48.776;9.204;2023-12-22T05:49:59;6.90;99.90
49503;DHT22;35409;48.776;9.204;2023-12-22T05:52:24;6.80;99.90
49503;DHT22;35409;48.776;9.204;2023-12-22T05:54:50;6.80;99.90
49503;DHT22;35409;48.776;9.204;2023-12-22T05:57:16;6.80;99.90
49503;DHT22;35409;48.776;9.204;2023-12-22T05:59:42;7.00;99.90
49503;DHT22;35409;48.776;9.204;2023-12-22T06:02:08;7.10;99.90
49503;DHT22;35409;48.776;9.204;2023-12-22T06:04:33;7.30;99.90
49503;DHT22;35409;48.776;9.204;2023-12-22T06:07:00;7.30;99.90
49503;DHT22;35409;48.776;9.204;2023-12-22T06:09:25;7.50;99.90
49503;DHT22;35409;48.776;9.204;2023-12-22T06:11:51;7.60;99.90
49503;DHT22;35409;48.776;9.204;2023-12-22T06:14:17;7.60;99.90
49503;DHT22;35409;48.776;9.204;2023-12-22T06:16:42;7.70;99.90
49503;DHT22;35409;48.776;9.204;2023-12-22T06:19:08;7.70;99.90
49503;DHT22;35409;48.776;9.204;2023-12-22T06:21:37;7.80;99.90
49503;DHT22;35409;48.776;9.204;2023-12-22T06:24:03;7.80;99.90
49503;DHT22;35409;48.776;9.204;2023-12-22T06:26:29;7.80;99.90
49503;DHT22;35409;48.776;9.204;2023-12-22T06:28:55;7.80;99.90
49503;DHT22;35409;48.776;9.204;2023-12-22T06:31:21;7.90;99.90
49503;DHT22;35409;48.776;9.204;2023-12-22T06:33:48;7.90;99.90
49503;DHT22;35409;48.776;9.204;2023-12-22T06:36:21;7.90;99.90
49503;DHT22;35409;48.776;9.204;2023-12-22T06:38:47;8.00;99.90
49503;DHT22;35409;48.776;9.204;2023-12-22T06:43:45;7.90;99.90
49503;DHT22;35409;48.776;9.204;2023-12-22T06:46:18;7.90;99.90
49503;DHT22;35409;48.776;9.204;2023-12-22T06:48:45;7.80;99.90
49503;DHT22;35409;48.776;9.204;2023-12-22T06:51:23;7.90;99.90
49503;DHT22;35409;48.776;9.204;2023-12-22T06:53:50;7.90;99.90
49503;DHT22;35409;48.776;9.204;2023-12-22T06:56:35;7.90;99.90
49503;DHT22;35409;48.776;9.204;2023-12-22T06:59:01;8.00;99.90
49503;DHT22;35409;48.776;9.204;2023-12-22T07:01:30;8.00;99.90
49503;DHT22;35409;48.776;9.204;2023-12-22T07:03:56;8.00;99.90
49503;DHT22;35409;48.776;9.204;2023-12-22T07:06:23;8.00;99.90
49503;DHT22;35409;48.776;9.204;2023-12-22T07:11:41;7.90;99.90
49503;DHT22;35409;48.776;9.204;2023-12-22T07:14:07;7.90;99.90
49503;DHT22;35409;48.776;9.204;2023-12-22T07:16:35;7.90;99.90
49503;DHT22;35409;48.776;9.204;2023-12-22T07:19:01;8.00;99.90
49503;DHT22;35409;48.776;9.204;2023-12-22T07:21:26;7.90;99.90
49503;DHT22;35409;48.776;9.204;2023-12-22T07:23:52;7.90;99.90
49503;DHT22;35409;48.776;9.204;2023-12-22T07:26:17;7.90;99.90
49503;DHT22;35409;48.776;9.204;2023-12-22T07:28:43;7.80;99.90
49503;DHT22;35409;48.776;9.204;2023-12-22T07:31:08;7.70;99.90
49503;DHT22;35409;48.776;9.204;2023-12-22T07:33:34;7.60;99.90
49503;DHT22;35409;48.776;9.204;2023-12-22T07:36:00;7.60;99.90
49503;DHT22;35409;48.776;9.204;2023-12-22T07:38:26;7.60;99.90
49503;DHT22;35409;48.776;9.204;2023-12-22T07:40:51;7.60;99.90
49503;DHT22;35409;48.776;9.204;2023-12-22T07:43:17;7.70;99.90
49503;DHT22;35409;48.776;9.204;2023-12-22T07:45:42;7.70;99.90
49503;DHT22;35409;48.776;9.204;2023-12-22T07:48:08;7.70;99.90
49503;DHT22;35409;48.776;9.204;2023-12-22T07:50:34;7.70;99.90
49503;DHT22;35409;48.776;9.204;2023-12-22T07:52:59;7.80;99.90
49503;DHT22;35409;48.776;9.204;2023-12-22T07:55:25;7.80;99.90
49503;DHT22;35409;48.776;9.204;2023-12-22T07:57:51;7.80;99.90
49503;DHT22;35409;48.776;9.204;2023-12-22T08:00:17;7.80;99.90
49503;DHT22;35409;48.776;9.204;2023-12-22T08:02:43;7.70;99.90
49503;DHT22;35409;48.776;9.204;2023-12-22T08:05:09;7.70;99.90
49503;DHT22;35409;48.776;9.204;2023-12-22T08:07:35;7.60;99.90
49503;DHT22;35409;48.776;9.204;2023-12-22T08:10:01;7.40;99.90
49503;DHT22;35409;48.776;9.204;2023-12-22T08:12:28;7.20;99.90
49503;DHT22;35409;48.776;9.204;2023-12-22T08:14:54;7.00;99.90
49503;DHT22;35409;48.776;9.204;2023-12-22T08:17:19;6.80;99.90
49503;DHT22;35409;48.776;9.204;2023-12-22T08:19:45;6.60;99.90
49503;DHT22;35409;48.776;9.204;2023-12-22T08:22:11;6.40;99.90
49503;DHT22;35409;48.776;9.204;2023-12-22T08:24:38;6.30;99.90
49503;DHT22;35409;48.776;9.204;2023-12-22T08:27:05;6.30;99.90
49503;DHT22;35409;48.776;9.204;2023-12-22T08:29:32;6.30;99.90
49503;DHT22;35409;48.776;9.204;2023-12-22T08:31:57;6.20;99.90
49503;DHT22;35409;48.776;9.204;2023-12-22T08:34:23;6.20;99.90
49503;DHT22;35409;48.776;9.204;2023-12-22T08:36:49;6.20;99.90
49503;DHT22;35409;48.776;9.204;2023-12-22T08:39:15;6.20;99.90
49503;DHT22;35409;48.776;9.204;2023-12-22T08:41:41;6.20;99.90
49503;DHT22;35409;48.776;9.204;2023-12-22T08:44:07;6.30;99.90
49503;DHT22;35409;48.776;9.204;2023-12-22T08:46:33;6.30;99.90
49503;DHT22;35409;48.776;9.204;2023-12-22T08:48:59;6.40;99.90
49503;DHT22;35409;48.776;9.204;2023-12-22T08:51:28;6.50;99.90
49503;DHT22;35409;48.776;9.204;2023-12-22T08:53:54;6.60;99.90
49503;DHT22;35409;48.776;9.204;2023-12-22T08:56:21;6.70;99.90
49503;DHT22;35409;48.776;9.204;2023-12-22T08:58:47;6.80;99.90
49503;DHT22;35409;48.776;9.204;2023-12-22T09:01:15;6.90;99.90
49503;DHT22;35409;48.776;9.204;2023-12-22T09:03:41;7.00;99.90
49503;DHT22;35409;48.776;9.204;2023-12-22T09:06:11;7.00;99.90
49503;DHT22;35409;48.776;9.204;2023-12-22T09:08:38;7.20;99.90
49503;DHT22;35409;48.776;9.204;2023-12-22T09:11:04;7.20;99.90
49503;DHT22;35409;48.776;9.204;2023-12-22T09:13:30;7.20;99.90
49503;DHT22;35409;48.776;9.204;2023-12-22T09:15:57;7.20;99.90
49503;DHT22;35409;48.776;9.204;2023-12-22T09:18:22;7.20;99.90
49503;DHT22;35409;48.776;9.204;2023-12-22T09:20:48;7.40;99.90
49503;DHT22;35409;48.776;9.204;2023-12-22T09:23:14;7.50;99.90
49503;DHT22;35409;48.776;9.204;2023-12-22T09:25:40;7.50;99.90
49503;DHT22;35409;48.776;9.204;2023-12-22T09:28:05;7.60;99.90
49503;DHT22;35409;48.776;9.204;2023-12-22T09:30:31;7.60;99.90
49503;DHT22;35409;48.776;9.204;2023-12-22T09:32:57;7.60;99.90
49503;DHT22;35409;48.776;9.204;2023-12-22T09:35:23;7.70;99.90
49503;DHT22;35409;48.776;9.204;2023-12-22T09:37:50;7.70;99.90
49503;DHT22;35409;48.776;9.204;2023-12-22T09:40:16;7.80;99.90
49503;DHT22;35409;48.776;9.204;2023-12-22T09:42:42;7.80;99.90
49503;DHT22;35409;48.776;9.204;2023-12-22T09:45:11;7.80;99.90
49503;DHT22;35409;48.776;9.204;2023-12-22T09:47:41;7.80;99.90
49503;DHT22;35409;48.776;9.204;2023-12-22T09:50:08;7.80;99.90
49503;DHT22;35409;48.776;9.204;2023-12-22T09:52:35;7.90;99.90
49503;DHT22;35409;48.776;9.204;2023-12-22T09:55:01;7.90;99.90
49503;DHT22;35409;48.776;9.204;2023-12-22T09:57:30;7.90;99.90
49503;DHT22;35409;48.776;9.204;2023-12-22T09:59:57;7.90;99.90
49503;DHT22;35409;48.776;9.204;2023-12-22T10:02:25;8.00;99.90
49503;DHT22;35409;48.776;9.204;2023-12-22T10:04:52;8.00;99.90
49503;DHT22;35409;48.776;9.204;2023-12-22T10:07:18;8.00;99.90
49503;DHT22;35409;48.776;9.204;2023-12-22T10:09:44;8.00;99.90
49503;DHT22;35409;48.776;9.204;2023-12-22T10:12:13;8.10;99.90
49503;DHT22;35409;48.776;9.204;2023-12-22T10:14:39;8.10;99.90
49503;DHT22;35409;48.776;9.204;2023-12-22T10:17:05;8.20;99.90
49503;DHT22;35409;48.776;9.204;2023-12-22T10:19:31;8.20;99.90
49503;DHT22;35409;48.776;9.204;2023-12-22T10:21:56;8.20;99.90
49503;DHT22;35409;48.776;9.204;2023-12-22T10:24:41;8.20;99.90
49503;DHT22;35409;48.776;9.204;2023-12-22T10:27:13;8.20;99.90
49503;DHT22;35409;48.776;9.204;2023-12-22T10:29:39;8.40;99.90
49503;DHT22;35409;48.776;9.204;2023-12-22T10:32:07;8.30;99.90
49503;DHT22;35409;48.776;9.204;2023-12-22T10:34:34;8.30;99.90
49503;DHT22;35409;48.776;9.204;2023-12-22T10:37:00;8.40;99.90
49503;DHT22;35409;48.776;9.204;2023-12-22T10:39:30;8.40;99.90
49503;DHT22;35409;48.776;9.204;2023-12-22T10:41:59;8.40;99.90
49503;DHT22;35409;48.776;9.204;2023-12-22T10:44:26;8.40;99.90
49503;DHT22;35409;48.776;9.204;2023-12-22T10:46:52;8.40;99.90
49503;DHT22;35409;48.776;9.204;2023-12-22T10:49:19;8.40;99.90
49503;DHT22;35409;48.776;9.204;2023-12-22T10:51:44;8.50;99.90
49503;DHT22;35409;48.776;9.204;2023-12-22T10:54:10;8.50;99.90
49503;DHT22;35409;48.776;9.204;2023-12-22T10:56:36;8.50;99.90
49503;DHT22;35409;48.776;9.204;2023-12-22T10:59:02;8.50;99.90
49503;DHT22;35409;48.776;9.204;2023-12-22T11:01:29;8.50;99.90
49503;DHT22;35409;48.776;9.204;2023-12-22T11:03:58;8.50;99.90
49503;DHT22;35409;48.776;9.204;2023-12-22T11:06:27;8.50;99.90
49503;DHT22;35409;48.776;9.204;2023-12-22T11:08:57;8.50;99.90
49503;DHT22;35409;48.776;9.204;2023-12-22T11:11:39;8.40;99.90
49503;DHT22;35409;48.776;9.204;2023-12-22T11:14:06;8.40;99.90
49503;DHT22;35409;48.776;9.204;2023-12-22T11:16:33;8.30;99.90
49503;DHT22;35409;48.776;9.204;2023-12-22T11:19:00;8.10;99.90
49503;DHT22;35409;48.776;9.204;2023-12-22T11:21:26;8.20;99.90
49503;DHT22;35409;48.776;9.204;2023-12-22T11:23:53;8.10;99.90
49503;DHT22;35409;48.776;9.204;2023-12-22T11:26:19;8.00;99.90
49503;DHT22;35409;48.776;9.204;2023-12-22T11:28:47;7.90;99.90
49503;DHT22;35409;48.776;9.204;2023-12-22T11:31:13;7.90;99.90
49503;DHT22;35409;48.776;9.204;2023-12-22T11:33:47;7.80;99.90
49503;DHT22;35409;48.776;9.204;2023-12-22T11:36:14;7.70;99.90
49503;DHT22;35409;48.776;9.204;2023-12-22T11:38:41;7.70;99.90
49503;DHT22;35409;48.776;9.204;2023-12-22T11:41:10;7.60;99.90
49503;DHT22;35409;48.776;9.204;2023-12-22T11:43:37;7.50;99.90
49503;DHT22;35409;48.776;9.204;2023-12-22T11:46:04;7.40;99.90
49503;DHT22;35409;48.776;9.204;2023-12-22T11:48:30;7.30;99.90
49503;DHT22;35409;48.776;9.204;2023-12-22T11:50:56;7.30;99.90
49503;DHT22;35409;48.776;9.204;2023-12-22T11:53:30;7.20;99.90
49503;DHT22;35409;48.776;9.204;2023-12-22T11:56:06;7.20;99.90
49503;DHT22;35409;48.776;9.204;2023-12-22T11:58:42;7.10;99.90
49503;DHT22;35409;48.776;9.204;2023-12-22T12:01:14;7.10;99.90
49503;DHT22;35409;48.776;9.204;2023-12-22T12:03:51;7.00;99.90
49503;DHT22;35409;48.776;9.204;2023-12-22T12:08:51;7.10;99.90
49503;DHT22;35409;48.776;9.204;2023-12-22T12:11:19;7.10;99.90
49503;DHT22;35409;48.776;9.204;2023-12-22T12:13:46;7.00;99.90
49503;DHT22;35409;48.776;9.204;2023-12-22T12:16:13;7.00;99.90
49503;DHT22;35409;48.776;9.204;2023-12-22T12:18:39;7.00;99.90
49503;DHT22;35409;48.776;9.204;2023-12-22T12:21:09;7.00;99.90
49503;DHT22;35409;48.776;9.204;2023-12-22T12:23:36;7.00;99.90
49503;DHT22;35409;48.776;9.204;2023-12-22T12:26:02;7.00;99.90
49503;DHT22;35409;48.776;9.204;2023-12-22T12:28:33;7.10;99.90
49503;DHT22;35409;48.776;9.204;2023-12-22T12:31:06;7.10;99.90
49503;DHT22;35409;48.776;9.204;2023-12-22T12:33:33;7.10;99.90
49503;DHT22;35409;48.776;9.204;2023-12-22T12:36:01;7.10;99.90
49503;DHT22;35409;48.776;9.204;2023-12-22T12:41:04;7.10;99.90
49503;DHT22;35409;48.776;9.204;2023-12-22T12:43:31;7.10;99.90
49503;DHT22;35409;48.776;9.204;2023-12-22T12:46:04;7.20;99.90
49503;DHT22;35409;48.776;9.204;2023-12-22T12:48:30;7.20;99.90
49503;DHT22;35409;48.776;9.204;2023-12-22T12:51:04;7.20;99.90
49503;DHT22;35409;48.776;9.204;2023-12-22T12:53:31;7.30;99.90
49503;DHT22;35409;48.776;9.204;2023-12-22T12:55:58;7.30;99.90
49503;DHT22;35409;48.776;9.204;2023-12-22T12:58:28;7.30;99.90
49503;DHT22;35409;48.776;9.204;2023-12-22T13:01:07;7.30;99.90
49503;DHT22;35409;48.776;9.204;2023-12-22T13:03:32;7.30;99.90
49503;DHT22;35409;48.776;9.204;2023-12-22T13:06:08;7.30;99.90
49503;DHT22;35409;48.776;9.204;2023-12-22T13:08:34;7.30;99.90
49503;DHT22;35409;48.776;9.204;2023-12-22T13:11:00;7.30;99.90
49503;DHT22;35409;48.776;9.204;2023-12-22T13:13:27;7.30;99.90
49503;DHT22;35409;48.776;9.204;2023-12-22T13:15:52;7.30;99.90
49503;DHT22;35409;48.776;9.204;2023-12-22T13:18:18;7.30;99.90
49503;DHT22;35409;48.776;9.204;2023-12-22T13:20:44;7.40;99.90
49503;DHT22;35409;48.776;9.204;2023-12-22T13:23:10;7.40;99.90
49503;DHT22;35409;48.776;9.204;2023-12-22T13:25:41;7.50;99.90
49503;DHT22;35409;48.776;9.204;2023-12-22T13:28:07;7.60;99.90
49503;DHT22;35409;48.776;9.204;2023-12-22T13:30:34;7.70;99.90
49503;DHT22;35409;48.776;9.204;2023-12-22T13:33:00;7.80;99.90
49503;DHT22;35409;48.776;9.204;2023-12-22T13:35:25;7.90;99.90
49503;DHT22;35409;48.776;9.204;2023-12-22T13:37:53;8.00;99.90
49503;DHT22;35409;48.776;9.204;2023-12-22T13:40:19;8.10;99.90
49503;DHT22;35409;48.776;9.204;2023-12-22T13:42:59;8.10;99.90
49503;DHT22;35409;48.776;9.204;2023-12-22T13:45:27;8.30;99.90
49503;DHT22;35409;48.776;9.204;2023-12-22T13:47:53;8.40;99.90
49503;DHT22;35409;48.776;9.204;2023-12-22T13:50:19;8.50;99.90
49503;DHT22;35409;48.776;9.204;2023-12-22T13:52:48;8.60;99.90
49503;DHT22;35409;48.776;9.204;2023-12-22T13:55:17;8.80;99.90
49503;DHT22;35409;48.776;9.204;2023-12-22T13:57:44;8.90;99.90
49503;DHT22;35409;48.776;9.204;2023-12-22T14:02:48;9.00;99.90
49503;DHT22;35409;48.776;9.204;2023-12-22T14:05:17;9.10;99.90
49503;DHT22;35409;48.776;9.204;2023-12-22T14:07:43;9.20;99.90
49503;DHT22;35409;48.776;9.204;2023-12-22T14:10:10;9.30;99.90
49503;DHT22;35409;48.776;9.204;2023-12-22T14:12:36;9.20;99.90
49503;DHT22;35409;48.776;9.204;2023-12-22T14:15:09;9.30;99.90
49503;DHT22;35409;48.776;9.204;2023-12-22T14:17:36;9.20;99.90
49503;DHT22;35409;48.776;9.204;2023-12-22T14:20:02;9.30;99.90
49503;DHT22;35409;48.776;9.204;2023-12-22T14:22:30;9.30;99.90
49503;DHT22;35409;48.776;9.204;2023-12-22T14:24:56;9.40;99.90
49503;DHT22;35409;48.776;9.204;2023-12-22T14:27:23;9.30;99.90
49503;DHT22;35409;48.776;9.204;2023-12-22T14:29:49;9.30;99.90
49503;DHT22;35409;48.776;9.204;2023-12-22T14:32:14;9.40;99.90
49503;DHT22;35409;48.776;9.204;2023-12-22T14:34:41;9.40;99.90
49503;DHT22;35409;48.776;9.204;2023-12-22T14:37:06;9.40;99.90
49503;DHT22;35409;48.776;9.204;2023-12-22T14:39:32;9.40;99.90
49503;DHT22;35409;48.776;9.204;2023-12-22T14:41:59;9.50;99.90
49503;DHT22;35409;48.776;9.204;2023-12-22T14:44:24;9.50;99.90
49503;DHT22;35409;48.776;9.204;2023-12-22T14:46:50;9.50;99.90
49503;DHT22;35409;48.776;9.204;2023-12-22T14:49:15;9.60;99.90
49503;DHT22;35409;48.776;9.204;2023-12-22T14:51:42;9.60;99.90
49503;DHT22;35409;48.776;9.204;2023-12-22T14:54:08;9.60;99.90
49503;DHT22;35409;48.776;9.204;2023-12-22T14:56:34;9.70;99.90
49503;DHT22;35409;48.776;9.204;2023-12-22T14:58:59;9.60;99.90
49503;DHT22;35409;48.776;9.204;2023-12-22T15:01:25;9.60;99.90
49503;DHT22;35409;48.776;9.204;2023-12-22T15:03:51;9.70;99.90
49503;DHT22;35409;48.776;9.204;2023-12-22T15:06:16;9.70;99.90
49503;DHT22;35409;48.776;9.204;2023-12-22T15:08:42;9.70;99.90
49503;DHT22;35409;48.776;9.204;2023-12-22T15:11:08;9.70;99.90
49503;DHT22;35409;48.776;9.204;2023-12-22T15:13:34;9.70;99.90
49503;DHT22;35409;48.776;9.204;2023-12-22T15:16:07;9.70;99.90
49503;DHT22;35409;48.776;9.204;2023-12-22T15:18:33;9.70;99.90
49503;DHT22;35409;48.776;9.204;2023-12-22T15:20:58;9.70;99.90
49503;DHT22;35409;48.776;9.204;2023-12-22T15:23:24;9.60;99.90
49503;DHT22;35409;48.776;9.204;2023-12-22T15:25:51;9.60;99.90
49503;DHT22;35409;48.776;9.204;2023-12-22T15:28:17;9.60;99.90
49503;DHT22;35409;48.776;9.204;2023-12-22T15:30:42;9.60;99.90
49503;DHT22;35409;48.776;9.204;2023-12-22T15:33:08;9.60;99.90
49503;DHT22;35409;48.776;9.204;2023-12-22T15:35:34;9.70;99.90
49503;DHT22;35409;48.776;9.204;2023-12-22T15:37:59;9.70;99.90
49503;DHT22;35409;48.776;9.204;2023-12-22T15:40:25;9.60;99.90
49503;DHT22;35409;48.776;9.204;2023-12-22T15:42:50;9.70;99.90
49503;DHT22;35409;48.776;9.204;2023-12-22T15:45:16;9.80;99.90
49503;DHT22;35409;48.776;9.204;2023-12-22T15:47:42;9.70;99.90
49503;DHT22;35409;48.776;9.204;2023-12-22T15:50:08;9.70;99.90
49503;DHT22;35409;48.776;9.204;2023-12-22T15:52:36;9.80;99.90
49503;DHT22;35409;48.776;9.204;2023-12-22T15:55:02;9.90;99.90
49503;DHT22;35409;48.776;9.204;2023-12-22T15:57:28;9.80;99.90
49503;DHT22;35409;48.776;9.204;2023-12-22T15:59:54;9.90;99.90